Terminal Aerodrome Forecast
Issued by NWS Sterling, VA

Home | Current Version | Previous Version | Text Only | Print | Product List | Glossary On
Versions: 1 2 3 4 5 6 7 8 9 10 11 12 13 14 15 16 17 18 19 20 21 22 23
281
FTUS41 KLWX 061727
TAFMRB
TAF
KMRB 061727Z 0618/0718 36009KT P6SM RA OVC025
     FM062000 36007KT P6SM RA OVC020
     FM070100 32007KT P6SM -SHRA OVC025
     FM070300 32006KT P6SM OVC025
     FM071100 33005KT P6SM BKN040=

USA.gov is the U.S. government's official web portal to all federal, state and local government web resources and services.